sensor_id;sensor_type;location;lat;lon;timestamp;temperature;humidity
5126;DHT22;2581;53.112;8.896;2022-07-06T00:01:03;17.80;99.90
5126;DHT22;2581;53.112;8.896;2022-07-06T00:03:29;17.80;99.90
5126;DHT22;2581;53.112;8.896;2022-07-06T00:05:55;17.80;99.90
5126;DHT22;2581;53.112;8.896;2022-07-06T00:08:21;17.70;99.90
5126;DHT22;2581;53.112;8.896;2022-07-06T00:10:47;17.80;99.90
5126;DHT22;2581;53.112;8.896;2022-07-06T00:13:12;17.70;99.90
5126;DHT22;2581;53.112;8.896;2022-07-06T00:15:38;17.70;99.90
5126;DHT22;2581;53.112;8.896;2022-07-06T00:18:04;17.70;99.90
5126;DHT22;2581;53.112;8.896;2022-07-06T00:20:29;17.70;99.90
5126;DHT22;2581;53.112;8.896;2022-07-06T00:22:55;17.60;99.90
5126;DHT22;2581;53.112;8.896;2022-07-06T00:25:21;17.70;99.90
5126;DHT22;2581;53.112;8.896;2022-07-06T00:27:46;17.70;99.90
5126;DHT22;2581;53.112;8.896;2022-07-06T00:30:12;17.70;99.90
5126;DHT22;2581;53.112;8.896;2022-07-06T00:32:38;17.70;99.90
5126;DHT22;2581;53.112;8.896;2022-07-06T00:35:04;17.70;99.90
5126;DHT22;2581;53.112;8.896;2022-07-06T00:37:30;17.70;99.90
5126;DHT22;2581;53.112;8.896;2022-07-06T00:39:56;17.80;99.90
5126;DHT22;2581;53.112;8.896;2022-07-06T00:42:21;17.80;99.90
5126;DHT22;2581;53.112;8.896;2022-07-06T00:44:47;17.80;99.90
5126;DHT22;2581;53.112;8.896;2022-07-06T00:47:13;17.80;99.90
5126;DHT22;2581;53.112;8.896;2022-07-06T00:49:38;17.80;99.90
5126;DHT22;2581;53.112;8.896;2022-07-06T00:52:30;17.80;99.90
5126;DHT22;2581;53.112;8.896;2022-07-06T00:54:56;17.80;99.90
5126;DHT22;2581;53.112;8.896;2022-07-06T00:57:22;17.80;99.90
5126;DHT22;2581;53.112;8.896;2022-07-06T00:59:48;17.80;99.90
5126;DHT22;2581;53.112;8.896;2022-07-06T01:02:14;17.80;99.90
5126;DHT22;2581;53.112;8.896;2022-07-06T01:04:40;17.80;99.90
5126;DHT22;2581;53.112;8.896;2022-07-06T01:07:05;17.90;99.90
5126;DHT22;2581;53.112;8.896;2022-07-06T01:09:31;17.90;99.90
5126;DHT22;2581;53.112;8.896;2022-07-06T01:11:57;18.00;99.90
5126;DHT22;2581;53.112;8.896;2022-07-06T01:14:23;18.10;99.90
5126;DHT22;2581;53.112;8.896;2022-07-06T01:16:49;18.10;99.90
5126;DHT22;2581;53.112;8.896;2022-07-06T01:19:15;18.10;99.90
5126;DHT22;2581;53.112;8.896;2022-07-06T01:21:41;18.10;99.90
5126;DHT22;2581;53.112;8.896;2022-07-06T01:24:06;18.10;99.90
5126;DHT22;2581;53.112;8.896;2022-07-06T01:26:32;18.20;99.90
5126;DHT22;2581;53.112;8.896;2022-07-06T01:28:58;18.20;99.90
5126;DHT22;2581;53.112;8.896;2022-07-06T01:31:25;18.20;99.90
5126;DHT22;2581;53.112;8.896;2022-07-06T01:33:54;18.20;99.90
5126;DHT22;2581;53.112;8.896;2022-07-06T01:36:21;18.20;99.90
5126;DHT22;2581;53.112;8.896;2022-07-06T01:38:49;18.20;99.90
5126;DHT22;2581;53.112;8.896;2022-07-06T01:41:15;18.10;99.90
5126;DHT22;2581;53.112;8.896;2022-07-06T01:43:41;18.10;99.90
5126;DHT22;2581;53.112;8.896;2022-07-06T01:46:07;18.10;99.90
5126;DHT22;2581;53.112;8.896;2022-07-06T01:48:33;18.10;99.90
5126;DHT22;2581;53.112;8.896;2022-07-06T01:50:59;18.10;99.90
5126;DHT22;2581;53.112;8.896;2022-07-06T01:53:24;18.10;99.90
5126;DHT22;2581;53.112;8.896;2022-07-06T01:55:50;18.10;99.90
5126;DHT22;2581;53.112;8.896;2022-07-06T01:58:15;18.10;99.90
5126;DHT22;2581;53.112;8.896;2022-07-06T02:00:41;18.10;99.90
5126;DHT22;2581;53.112;8.896;2022-07-06T02:03:07;18.10;99.90
5126;DHT22;2581;53.112;8.896;2022-07-06T02:05:33;18.10;99.90
5126;DHT22;2581;53.112;8.896;2022-07-06T02:07:58;18.20;99.90
5126;DHT22;2581;53.112;8.896;2022-07-06T02:10:24;18.20;99.90
5126;DHT22;2581;53.112;8.896;2022-07-06T02:12:49;18.20;99.90
5126;DHT22;2581;53.112;8.896;2022-07-06T02:15:15;18.20;99.90
5126;DHT22;2581;53.112;8.896;2022-07-06T02:17:41;18.10;99.90
5126;DHT22;2581;53.112;8.896;2022-07-06T02:20:07;18.10;99.90
5126;DHT22;2581;53.112;8.896;2022-07-06T02:22:33;18.10;99.90
5126;DHT22;2581;53.112;8.896;2022-07-06T02:24:59;18.10;99.90
5126;DHT22;2581;53.112;8.896;2022-07-06T02:27:25;18.00;99.90
5126;DHT22;2581;53.112;8.896;2022-07-06T02:29:50;17.90;99.90
5126;DHT22;2581;53.112;8.896;2022-07-06T02:32:16;17.90;99.90
5126;DHT22;2581;53.112;8.896;2022-07-06T02:34:42;17.80;99.90
5126;DHT22;2581;53.112;8.896;2022-07-06T02:37:08;17.90;99.90
5126;DHT22;2581;53.112;8.896;2022-07-06T02:39:34;17.80;99.90
5126;DHT22;2581;53.112;8.896;2022-07-06T02:41:59;17.80;99.90
5126;DHT22;2581;53.112;8.896;2022-07-06T02:44:25;17.80;99.90
5126;DHT22;2581;53.112;8.896;2022-07-06T02:46:51;17.80;99.90
5126;DHT22;2581;53.112;8.896;2022-07-06T02:49:16;17.80;99.90
5126;DHT22;2581;53.112;8.896;2022-07-06T02:51:42;17.80;99.90
5126;DHT22;2581;53.112;8.896;2022-07-06T02:54:07;17.80;99.90
5126;DHT22;2581;53.112;8.896;2022-07-06T02:56:33;17.70;99.90
5126;DHT22;2581;53.112;8.896;2022-07-06T02:58:59;17.70;99.90
5126;DHT22;2581;53.112;8.896;2022-07-06T03:01:25;17.60;99.90
5126;DHT22;2581;53.112;8.896;2022-07-06T03:03:51;17.60;99.90
5126;DHT22;2581;53.112;8.896;2022-07-06T03:06:17;17.60;99.90
5126;DHT22;2581;53.112;8.896;2022-07-06T03:08:42;17.50;99.90
5126;DHT22;2581;53.112;8.896;2022-07-06T03:11:08;17.60;99.90
5126;DHT22;2581;53.112;8.896;2022-07-06T03:13:35;17.60;99.90
5126;DHT22;2581;53.112;8.896;2022-07-06T03:16:00;17.60;99.90
5126;DHT22;2581;53.112;8.896;2022-07-06T03:18:26;17.50;99.90
5126;DHT22;2581;53.112;8.896;2022-07-06T03:20:52;17.50;99.90
5126;DHT22;2581;53.112;8.896;2022-07-06T03:23:18;17.40;99.90
5126;DHT22;2581;53.112;8.896;2022-07-06T03:25:45;17.40;99.90
5126;DHT22;2581;53.112;8.896;2022-07-06T03:28:10;17.40;99.90
5126;DHT22;2581;53.112;8.896;2022-07-06T03:30:36;17.30;99.90
5126;DHT22;2581;53.112;8.896;2022-07-06T03:33:02;17.40;99.90
5126;DHT22;2581;53.112;8.896;2022-07-06T03:35:27;17.40;99.90
5126;DHT22;2581;53.112;8.896;2022-07-06T03:37:54;17.40;99.90
5126;DHT22;2581;53.112;8.896;2022-07-06T03:40:20;17.40;99.90
5126;DHT22;2581;53.112;8.896;2022-07-06T03:42:45;17.40;99.90
5126;DHT22;2581;53.112;8.896;2022-07-06T03:45:11;17.40;99.90
5126;DHT22;2581;53.112;8.896;2022-07-06T03:47:37;17.40;99.90
5126;DHT22;2581;53.112;8.896;2022-07-06T03:50:03;17.40;99.90
5126;DHT22;2581;53.112;8.896;2022-07-06T03:52:29;17.40;99.90
5126;DHT22;2581;53.112;8.896;2022-07-06T03:54:55;17.40;99.90
5126;DHT22;2581;53.112;8.896;2022-07-06T03:57:21;17.50;99.90
5126;DHT22;2581;53.112;8.896;2022-07-06T03:59:47;17.50;99.90
5126;DHT22;2581;53.112;8.896;2022-07-06T04:02:12;17.50;99.90
5126;DHT22;2581;53.112;8.896;2022-07-06T04:04:38;17.60;99.90
5126;DHT22;2581;53.112;8.896;2022-07-06T04:07:04;17.50;99.90
5126;DHT22;2581;53.112;8.896;2022-07-06T04:09:29;17.50;99.90
5126;DHT22;2581;53.112;8.896;2022-07-06T04:11:55;17.50;99.90
5126;DHT22;2581;53.112;8.896;2022-07-06T04:14:21;17.50;99.90
5126;DHT22;2581;53.112;8.896;2022-07-06T04:16:47;17.50;99.90
5126;DHT22;2581;53.112;8.896;2022-07-06T04:19:12;17.50;99.90
5126;DHT22;2581;53.112;8.896;2022-07-06T04:21:38;17.50;99.90
5126;DHT22;2581;53.112;8.896;2022-07-06T04:24:04;17.50;99.90
5126;DHT22;2581;53.112;8.896;2022-07-06T04:26:30;17.50;99.90
5126;DHT22;2581;53.112;8.896;2022-07-06T04:28:56;17.50;99.90
5126;DHT22;2581;53.112;8.896;2022-07-06T04:31:21;17.60;99.90
5126;DHT22;2581;53.112;8.896;2022-07-06T04:33:47;17.60;99.90
5126;DHT22;2581;53.112;8.896;2022-07-06T04:36:13;17.50;99.90
5126;DHT22;2581;53.112;8.896;2022-07-06T04:38:38;17.60;99.90
5126;DHT22;2581;53.112;8.896;2022-07-06T04:41:04;17.50;99.90
5126;DHT22;2581;53.112;8.896;2022-07-06T04:43:30;17.50;99.90
5126;DHT22;2581;53.112;8.896;2022-07-06T04:45:56;17.50;99.90
5126;DHT22;2581;53.112;8.896;2022-07-06T04:48:21;17.50;99.90
5126;DHT22;2581;53.112;8.896;2022-07-06T04:50:47;17.50;99.90
5126;DHT22;2581;53.112;8.896;2022-07-06T04:53:12;17.50;99.90
5126;DHT22;2581;53.112;8.896;2022-07-06T04:55:38;17.60;99.90
5126;DHT22;2581;53.112;8.896;2022-07-06T04:58:04;17.60;99.90
5126;DHT22;2581;53.112;8.896;2022-07-06T05:00:30;17.70;99.90
5126;DHT22;2581;53.112;8.896;2022-07-06T05:02:56;17.70;99.90
5126;DHT22;2581;53.112;8.896;2022-07-06T05:05:22;17.90;99.90
5126;DHT22;2581;53.112;8.896;2022-07-06T05:07:48;18.00;99.90
5126;DHT22;2581;53.112;8.896;2022-07-06T05:10:14;18.00;99.90
5126;DHT22;2581;53.112;8.896;2022-07-06T05:12:40;18.10;99.90
5126;DHT22;2581;53.112;8.896;2022-07-06T05:15:06;18.10;99.90
5126;DHT22;2581;53.112;8.896;2022-07-06T05:17:32;18.10;99.90
5126;DHT22;2581;53.112;8.896;2022-07-06T05:19:58;18.10;99.90
5126;DHT22;2581;53.112;8.896;2022-07-06T05:22:24;18.00;99.90
5126;DHT22;2581;53.112;8.896;2022-07-06T05:24:50;18.10;99.90
5126;DHT22;2581;53.112;8.896;2022-07-06T05:27:16;18.20;99.90
5126;DHT22;2581;53.112;8.896;2022-07-06T05:29:41;18.30;99.90
5126;DHT22;2581;53.112;8.896;2022-07-06T05:32:07;18.40;99.90
5126;DHT22;2581;53.112;8.896;2022-07-06T05:34:33;18.30;99.90
5126;DHT22;2581;53.112;8.896;2022-07-06T05:36:58;18.20;99.90
5126;DHT22;2581;53.112;8.896;2022-07-06T05:39:24;18.20;99.90
5126;DHT22;2581;53.112;8.896;2022-07-06T05:41:50;18.30;99.90
5126;DHT22;2581;53.112;8.896;2022-07-06T05:44:15;18.30;99.90
5126;DHT22;2581;53.112;8.896;2022-07-06T05:46:41;18.40;99.90
5126;DHT22;2581;53.112;8.896;2022-07-06T05:49:07;18.50;99.90
5126;DHT22;2581;53.112;8.896;2022-07-06T05:51:51;18.50;99.90
5126;DHT22;2581;53.112;8.896;2022-07-06T05:54:17;18.50;99.90
5126;DHT22;2581;53.112;8.896;2022-07-06T05:56:42;18.40;99.90
5126;DHT22;2581;53.112;8.896;2022-07-06T05:59:08;18.40;99.90
5126;DHT22;2581;53.112;8.896;2022-07-06T06:01:34;18.40;99.90
5126;DHT22;2581;53.112;8.896;2022-07-06T06:04:00;18.40;99.90
5126;DHT22;2581;53.112;8.896;2022-07-06T06:06:26;18.30;99.90
5126;DHT22;2581;53.112;8.896;2022-07-06T06:08:52;18.40;99.90
5126;DHT22;2581;53.112;8.896;2022-07-06T06:11:18;18.40;99.90
5126;DHT22;2581;53.112;8.896;2022-07-06T06:13:43;18.40;99.90
5126;DHT22;2581;53.112;8.896;2022-07-06T06:16:09;18.40;99.90
5126;DHT22;2581;53.112;8.896;2022-07-06T06:18:35;18.30;99.90
5126;DHT22;2581;53.112;8.896;2022-07-06T06:21:01;18.40;99.90
5126;DHT22;2581;53.112;8.896;2022-07-06T06:23:26;18.40;99.90
5126;DHT22;2581;53.112;8.896;2022-07-06T06:25:52;18.40;99.90
5126;DHT22;2581;53.112;8.896;2022-07-06T06:28:18;18.30;99.90
5126;DHT22;2581;53.112;8.896;2022-07-06T06:30:44;18.20;99.90
5126;DHT22;2581;53.112;8.896;2022-07-06T06:33:11;18.30;99.90
5126;DHT22;2581;53.112;8.896;2022-07-06T06:35:43;18.30;99.90
5126;DHT22;2581;53.112;8.896;2022-07-06T06:38:09;18.30;99.90
5126;DHT22;2581;53.112;8.896;2022-07-06T06:40:34;18.40;99.90
5126;DHT22;2581;53.112;8.896;2022-07-06T06:43:00;18.40;99.90
5126;DHT22;2581;53.112;8.896;2022-07-06T06:45:26;18.40;99.90
5126;DHT22;2581;53.112;8.896;2022-07-06T06:47:51;18.50;99.90
5126;DHT22;2581;53.112;8.896;2022-07-06T06:50:17;18.70;99.90
5126;DHT22;2581;53.112;8.896;2022-07-06T06:52:43;18.70;99.90
5126;DHT22;2581;53.112;8.896;2022-07-06T06:55:09;18.70;99.90
5126;DHT22;2581;53.112;8.896;2022-07-06T06:57:35;18.70;99.90
5126;DHT22;2581;53.112;8.896;2022-07-06T07:00:00;18.70;99.90
5126;DHT22;2581;53.112;8.896;2022-07-06T07:02:26;18.70;99.90
5126;DHT22;2581;53.112;8.896;2022-07-06T07:04:52;18.70;99.90
5126;DHT22;2581;53.112;8.896;2022-07-06T07:07:18;18.70;99.90
5126;DHT22;2581;53.112;8.896;2022-07-06T07:09:43;18.80;99.90
5126;DHT22;2581;53.112;8.896;2022-07-06T07:12:09;18.80;99.90
5126;DHT22;2581;53.112;8.896;2022-07-06T07:14:37;18.90;99.90
5126;DHT22;2581;53.112;8.896;2022-07-06T07:17:03;18.90;99.90
5126;DHT22;2581;53.112;8.896;2022-07-06T07:19:29;18.90;99.90
5126;DHT22;2581;53.112;8.896;2022-07-06T07:21:54;19.00;99.90
5126;DHT22;2581;53.112;8.896;2022-07-06T07:24:20;19.10;99.90
5126;DHT22;2581;53.112;8.896;2022-07-06T07:26:45;19.30;99.90
5126;DHT22;2581;53.112;8.896;2022-07-06T07:29:11;19.70;99.90
5126;DHT22;2581;53.112;8.896;2022-07-06T07:31:37;20.00;99.90
5126;DHT22;2581;53.112;8.896;2022-07-06T07:34:03;20.20;99.90
5126;DHT22;2581;53.112;8.896;2022-07-06T07:36:28;20.30;99.90
5126;DHT22;2581;53.112;8.896;2022-07-06T07:38:54;20.40;99.90
5126;DHT22;2581;53.112;8.896;2022-07-06T07:41:19;20.50;99.90
5126;DHT22;2581;53.112;8.896;2022-07-06T07:43:45;20.60;99.90
5126;DHT22;2581;53.112;8.896;2022-07-06T07:46:11;20.60;99.90
5126;DHT22;2581;53.112;8.896;2022-07-06T07:48:37;20.50;99.90
5126;DHT22;2581;53.112;8.896;2022-07-06T07:51:02;20.50;99.90
5126;DHT22;2581;53.112;8.896;2022-07-06T07:53:28;20.60;99.90
5126;DHT22;2581;53.112;8.896;2022-07-06T07:55:53;20.80;99.90
5126;DHT22;2581;53.112;8.896;2022-07-06T07:58:19;20.90;99.90
5126;DHT22;2581;53.112;8.896;2022-07-06T08:00:45;21.00;99.90
5126;DHT22;2581;53.112;8.896;2022-07-06T08:03:11;21.10;99.90
5126;DHT22;2581;53.112;8.896;2022-07-06T08:05:37;21.10;99.90
5126;DHT22;2581;53.112;8.896;2022-07-06T08:08:03;21.20;99.90
5126;DHT22;2581;53.112;8.896;2022-07-06T08:10:30;21.30;99.90
5126;DHT22;2581;53.112;8.896;2022-07-06T08:12:55;21.40;99.90
5126;DHT22;2581;53.112;8.896;2022-07-06T08:15:21;21.30;99.90
5126;DHT22;2581;53.112;8.896;2022-07-06T08:17:47;21.30;99.90
5126;DHT22;2581;53.112;8.896;2022-07-06T08:20:13;21.40;99.90
5126;DHT22;2581;53.112;8.896;2022-07-06T08:22:38;21.40;99.90
5126;DHT22;2581;53.112;8.896;2022-07-06T08:25:05;21.50;99.90
5126;DHT22;2581;53.112;8.896;2022-07-06T08:27:31;21.60;99.90
5126;DHT22;2581;53.112;8.896;2022-07-06T08:29:56;21.70;99.90
5126;DHT22;2581;53.112;8.896;2022-07-06T08:32:22;21.70;99.90
5126;DHT22;2581;53.112;8.896;2022-07-06T08:34:48;21.70;99.90
5126;DHT22;2581;53.112;8.896;2022-07-06T08:37:14;21.70;99.90
5126;DHT22;2581;53.112;8.896;2022-07-06T08:39:39;21.80;99.90
5126;DHT22;2581;53.112;8.896;2022-07-06T08:42:07;21.80;99.90
5126;DHT22;2581;53.112;8.896;2022-07-06T08:44:36;21.80;99.90
5126;DHT22;2581;53.112;8.896;2022-07-06T08:47:05;21.80;99.90
5126;DHT22;2581;53.112;8.896;2022-07-06T08:49:32;21.70;99.90
5126;DHT22;2581;53.112;8.896;2022-07-06T08:52:00;21.70;99.90
5126;DHT22;2581;53.112;8.896;2022-07-06T08:54:28;21.70;99.90
5126;DHT22;2581;53.112;8.896;2022-07-06T08:56:54;21.60;99.90
5126;DHT22;2581;53.112;8.896;2022-07-06T08:59:20;21.50;99.90
5126;DHT22;2581;53.112;8.896;2022-07-06T09:01:45;21.40;99.90
5126;DHT22;2581;53.112;8.896;2022-07-06T09:04:13;21.20;99.90
5126;DHT22;2581;53.112;8.896;2022-07-06T09:06:42;21.20;99.90
5126;DHT22;2581;53.112;8.896;2022-07-06T09:09:09;21.00;99.90
5126;DHT22;2581;53.112;8.896;2022-07-06T09:11:35;21.00;99.90
5126;DHT22;2581;53.112;8.896;2022-07-06T09:14:03;21.00;99.90
5126;DHT22;2581;53.112;8.896;2022-07-06T09:16:29;21.00;99.90
5126;DHT22;2581;53.112;8.896;2022-07-06T09:18:56;20.90;99.90
5126;DHT22;2581;53.112;8.896;2022-07-06T09:21:30;20.80;99.90
5126;DHT22;2581;53.112;8.896;2022-07-06T09:23:59;20.80;99.90
5126;DHT22;2581;53.112;8.896;2022-07-06T09:26:25;20.80;99.90
5126;DHT22;2581;53.112;8.896;2022-07-06T09:28:52;20.70;99.90
5126;DHT22;2581;53.112;8.896;2022-07-06T09:31:20;20.70;99.90
5126;DHT22;2581;53.112;8.896;2022-07-06T09:34:08;20.70;99.90
5126;DHT22;2581;53.112;8.896;2022-07-06T09:39:27;20.70;99.90
5126;DHT22;2581;53.112;8.896;2022-07-06T09:41:58;20.70;99.90
5126;DHT22;2581;53.112;8.896;2022-07-06T09:47:01;20.80;99.90
5126;DHT22;2581;53.112;8.896;2022-07-06T09:49:28;20.80;99.90
5126;DHT22;2581;53.112;8.896;2022-07-06T09:51:58;20.80;99.90
5126;DHT22;2581;53.112;8.896;2022-07-06T09:54:25;20.70;99.90
5126;DHT22;2581;53.112;8.896;2022-07-06T09:56:52;20.70;99.90
5126;DHT22;2581;53.112;8.896;2022-07-06T09:59:21;20.60;99.90
5126;DHT22;2581;53.112;8.896;2022-07-06T10:01:50;20.50;99.90
5126;DHT22;2581;53.112;8.896;2022-07-06T10:04:16;20.50;99.90
5126;DHT22;2581;53.112;8.896;2022-07-06T10:06:44;20.50;99.90
5126;DHT22;2581;53.112;8.896;2022-07-06T10:09:11;20.60;99.90
5126;DHT22;2581;53.112;8.896;2022-07-06T10:11:39;20.60;99.90
5126;DHT22;2581;53.112;8.896;2022-07-06T10:14:07;20.60;99.90
5126;DHT22;2581;53.112;8.896;2022-07-06T10:16:36;20.70;99.90
5126;DHT22;2581;53.112;8.896;2022-07-06T10:19:05;20.80;99.90
5126;DHT22;2581;53.112;8.896;2022-07-06T10:21:31;20.90;99.90
5126;DHT22;2581;53.112;8.896;2022-07-06T10:23:57;21.00;99.90
5126;DHT22;2581;53.112;8.896;2022-07-06T10:26:25;21.10;99.90
5126;DHT22;2581;53.112;8.896;2022-07-06T10:28:52;21.10;99.90
5126;DHT22;2581;53.112;8.896;2022-07-06T10:31:18;21.10;99.90
5126;DHT22;2581;53.112;8.896;2022-07-06T10:33:45;21.20;99.90
5126;DHT22;2581;53.112;8.896;2022-07-06T10:36:11;21.30;99.90
5126;DHT22;2581;53.112;8.896;2022-07-06T10:38:38;21.40;99.90
5126;DHT22;2581;53.112;8.896;2022-07-06T10:41:05;21.30;99.90
5126;DHT22;2581;53.112;8.896;2022-07-06T10:43:42;21.30;99.90
5126;DHT22;2581;53.112;8.896;2022-07-06T10:46:09;21.20;99.90
5126;DHT22;2581;53.112;8.896;2022-07-06T10:48:55;21.20;99.90
5126;DHT22;2581;53.112;8.896;2022-07-06T10:51:28;21.20;99.90
5126;DHT22;2581;53.112;8.896;2022-07-06T10:54:00;21.10;99.90
5126;DHT22;2581;53.112;8.896;2022-07-06T10:56:38;21.10;99.90
5126;DHT22;2581;53.112;8.896;2022-07-06T11:02:11;21.20;99.90
5126;DHT22;2581;53.112;8.896;2022-07-06T11:04:37;21.20;99.90
5126;DHT22;2581;53.112;8.896;2022-07-06T11:07:08;21.20;99.90
5126;DHT22;2581;53.112;8.896;2022-07-06T11:09:36;21.30;99.90
5126;DHT22;2581;53.112;8.896;2022-07-06T11:12:15;21.20;99.90
5126;DHT22;2581;53.112;8.896;2022-07-06T11:14:44;21.10;99.90
5126;DHT22;2581;53.112;8.896;2022-07-06T11:17:11;20.90;99.90
5126;DHT22;2581;53.112;8.896;2022-07-06T11:19:37;20.80;99.90
5126;DHT22;2581;53.112;8.896;2022-07-06T11:22:09;20.70;99.90
5126;DHT22;2581;53.112;8.896;2022-07-06T11:24:38;20.70;99.90
5126;DHT22;2581;53.112;8.896;2022-07-06T11:27:04;20.70;99.90
5126;DHT22;2581;53.112;8.896;2022-07-06T11:29:32;20.70;99.90
5126;DHT22;2581;53.112;8.896;2022-07-06T11:32:00;20.70;99.90
5126;DHT22;2581;53.112;8.896;2022-07-06T11:34:33;20.80;99.90
5126;DHT22;2581;53.112;8.896;2022-07-06T11:37:08;20.80;99.90
5126;DHT22;2581;53.112;8.896;2022-07-06T11:39:39;20.80;99.90
5126;DHT22;2581;53.112;8.896;2022-07-06T11:42:06;20.70;99.90
5126;DHT22;2581;53.112;8.896;2022-07-06T11:44:35;20.70;99.90
5126;DHT22;2581;53.112;8.896;2022-07-06T11:47:02;20.70;99.90
5126;DHT22;2581;53.112;8.896;2022-07-06T11:49:29;20.70;99.90
5126;DHT22;2581;53.112;8.896;2022-07-06T11:51:56;20.80;99.90
5126;DHT22;2581;53.112;8.896;2022-07-06T11:54:23;20.90;99.90
5126;DHT22;2581;53.112;8.896;2022-07-06T11:56:56;21.20;99.90
5126;DHT22;2581;53.112;8.896;2022-07-06T11:59:31;21.70;99.90
5126;DHT22;2581;53.112;8.896;2022-07-06T12:02:10;22.10;99.90
5126;DHT22;2581;53.112;8.896;2022-07-06T12:04:39;22.50;99.90
5126;DHT22;2581;53.112;8.896;2022-07-06T12:07:07;22.70;99.90
5126;DHT22;2581;53.112;8.896;2022-07-06T12:09:36;22.80;99.90
5126;DHT22;2581;53.112;8.896;2022-07-06T12:12:03;22.80;99.90
5126;DHT22;2581;53.112;8.896;2022-07-06T12:14:31;22.70;99.90
5126;DHT22;2581;53.112;8.896;2022-07-06T12:17:06;22.60;99.90
5126;DHT22;2581;53.112;8.896;2022-07-06T12:19:32;22.60;99.90
5126;DHT22;2581;53.112;8.896;2022-07-06T12:21:59;22.70;99.90
5126;DHT22;2581;53.112;8.896;2022-07-06T12:24:28;22.90;99.90
5126;DHT22;2581;53.112;8.896;2022-07-06T12:26:55;22.80;99.90
5126;DHT22;2581;53.112;8.896;2022-07-06T12:29:22;22.70;99.90
5126;DHT22;2581;53.112;8.896;2022-07-06T12:31:56;22.70;99.90
5126;DHT22;2581;53.112;8.896;2022-07-06T12:34:22;22.60;99.90
5126;DHT22;2581;53.112;8.896;2022-07-06T12:36:55;22.60;99.90
5126;DHT22;2581;53.112;8.896;2022-07-06T12:39:30;22.60;99.90
5126;DHT22;2581;53.112;8.896;2022-07-06T12:42:03;22.70;99.90
5126;DHT22;2581;53.112;8.896;2022-07-06T12:44:31;22.70;99.90
5126;DHT22;2581;53.112;8.896;2022-07-06T12:47:07;22.60;99.90
5126;DHT22;2581;53.112;8.896;2022-07-06T12:49:35;22.60;99.90
5126;DHT22;2581;53.112;8.896;2022-07-06T12:54:33;22.60;99.90
5126;DHT22;2581;53.112;8.896;2022-07-06T12:59:36;22.70;99.90
5126;DHT22;2581;53.112;8.896;2022-07-06T13:02:04;22.60;99.90
5126;DHT22;2581;53.112;8.896;2022-07-06T13:04:31;22.70;99.90
5126;DHT22;2581;53.112;8.896;2022-07-06T13:06:58;22.70;99.90
5126;DHT22;2581;53.112;8.896;2022-07-06T13:09:24;22.80;99.90
5126;DHT22;2581;53.112;8.896;2022-07-06T13:11:50;22.70;99.90
5126;DHT22;2581;53.112;8.896;2022-07-06T13:14:17;22.60;99.90
5126;DHT22;2581;53.112;8.896;2022-07-06T13:16:44;22.70;99.90
5126;DHT22;2581;53.112;8.896;2022-07-06T13:19:10;22.90;99.90
5126;DHT22;2581;53.112;8.896;2022-07-06T13:21:36;23.10;99.90
5126;DHT22;2581;53.112;8.896;2022-07-06T13:24:03;23.10;99.90
5126;DHT22;2581;53.112;8.896;2022-07-06T13:26:30;23.00;99.90
5126;DHT22;2581;53.112;8.896;2022-07-06T13:28:59;22.90;99.90
5126;DHT22;2581;53.112;8.896;2022-07-06T13:31:25;22.70;99.90
5126;DHT22;2581;53.112;8.896;2022-07-06T13:33:50;22.60;99.90
5126;DHT22;2581;53.112;8.896;2022-07-06T13:36:16;22.60;99.90
5126;DHT22;2581;53.112;8.896;2022-07-06T13:38:42;22.70;99.90
5126;DHT22;2581;53.112;8.896;2022-07-06T13:41:08;22.70;99.90
5126;DHT22;2581;53.112;8.896;2022-07-06T13:43:34;22.70;99.90
5126;DHT22;2581;53.112;8.896;2022-07-06T13:46:03;22.70;99.90
5126;DHT22;2581;53.112;8.896;2022-07-06T13:48:30;22.80;99.90
5126;DHT22;2581;53.112;8.896;2022-07-06T13:50:56;23.20;99.90
5126;DHT22;2581;53.112;8.896;2022-07-06T13:53:22;23.60;99.90
5126;DHT22;2581;53.112;8.896;2022-07-06T13:55:47;24.00;99.90
5126;DHT22;2581;53.112;8.896;2022-07-06T13:58:13;24.40;99.90
5126;DHT22;2581;53.112;8.896;2022-07-06T14:00:39;24.60;99.90
5126;DHT22;2581;53.112;8.896;2022-07-06T14:03:05;24.80;99.90
5126;DHT22;2581;53.112;8.896;2022-07-06T14:05:30;25.10;99.90
5126;DHT22;2581;53.112;8.896;2022-07-06T14:07:56;25.30;99.90
5126;DHT22;2581;53.112;8.896;2022-07-06T14:10:22;25.20;99.90
5126;DHT22;2581;53.112;8.896;2022-07-06T14:12:48;24.90;99.90
5126;DHT22;2581;53.112;8.896;2022-07-06T14:15:14;24.50;99.90
5126;DHT22;2581;53.112;8.896;2022-07-06T14:17:39;24.20;99.90
5126;DHT22;2581;53.112;8.896;2022-07-06T14:20:06;24.10;99.90
5126;DHT22;2581;53.112;8.896;2022-07-06T14:22:31;24.10;99.90
5126;DHT22;2581;53.112;8.896;2022-07-06T14:24:58;24.20;99.90
5126;DHT22;2581;53.112;8.896;2022-07-06T14:27:24;24.30;99.90
5126;DHT22;2581;53.112;8.896;2022-07-06T14:29:50;24.30;99.90
5126;DHT22;2581;53.112;8.896;2022-07-06T14:32:15;24.40;99.90
5126;DHT22;2581;53.112;8.896;2022-07-06T14:34:41;24.70;99.90
5126;DHT22;2581;53.112;8.896;2022-07-06T14:37:07;24.70;99.90
5126;DHT22;2581;53.112;8.896;2022-07-06T14:39:33;24.90;99.90
5126;DHT22;2581;53.112;8.896;2022-07-06T14:41:59;25.20;99.90
5126;DHT22;2581;53.112;8.896;2022-07-06T14:44:24;25.50;99.90
5126;DHT22;2581;53.112;8.896;2022-07-06T14:46:52;25.60;99.30
5126;DHT22;2581;53.112;8.896;2022-07-06T14:49:17;25.50;98.70
5126;DHT22;2581;53.112;8.896;2022-07-06T14:51:43;25.30;99.90
5126;DHT22;2581;53.112;8.896;2022-07-06T14:54:09;25.00;99.90
5126;DHT22;2581;53.112;8.896;2022-07-06T14:56:35;24.70;99.90
5126;DHT22;2581;53.112;8.896;2022-07-06T14:59:01;24.50;99.90
5126;DHT22;2581;53.112;8.896;2022-07-06T15:01:27;24.20;99.90
5126;DHT22;2581;53.112;8.896;2022-07-06T15:03:52;24.10;99.90
5126;DHT22;2581;53.112;8.896;2022-07-06T15:06:18;23.90;99.90
5126;DHT22;2581;53.112;8.896;2022-07-06T15:08:43;23.80;99.90
5126;DHT22;2581;53.112;8.896;2022-07-06T15:11:09;23.80;99.90
5126;DHT22;2581;53.112;8.896;2022-07-06T15:13:35;23.70;99.90
5126;DHT22;2581;53.112;8.896;2022-07-06T15:16:01;23.60;99.90
5126;DHT22;2581;53.112;8.896;2022-07-06T15:18:26;23.50;99.90
5126;DHT22;2581;53.112;8.896;2022-07-06T15:20:52;23.50;99.90
5126;DHT22;2581;53.112;8.896;2022-07-06T15:23:18;23.40;99.90
5126;DHT22;2581;53.112;8.896;2022-07-06T15:25:44;23.40;99.90
5126;DHT22;2581;53.112;8.896;2022-07-06T15:28:10;23.40;99.90
5126;DHT22;2581;53.112;8.896;2022-07-06T15:30:38;23.30;99.90
5126;DHT22;2581;53.112;8.896;2022-07-06T15:33:03;23.30;99.90
5126;DHT22;2581;53.112;8.896;2022-07-06T15:35:29;23.30;99.90
5126;DHT22;2581;53.112;8.896;2022-07-06T15:37:55;23.30;99.90
5126;DHT22;2581;53.112;8.896;2022-07-06T15:40:21;23.10;99.90
5126;DHT22;2581;53.112;8.896;2022-07-06T15:42:50;22.90;99.90
5126;DHT22;2581;53.112;8.896;2022-07-06T15:45:17;22.80;99.90
5126;DHT22;2581;53.112;8.896;2022-07-06T15:47:44;22.70;99.90
5126;DHT22;2581;53.112;8.896;2022-07-06T15:50:09;22.60;99.90
5126;DHT22;2581;53.112;8.896;2022-07-06T15:52:35;22.60;99.90
5126;DHT22;2581;53.112;8.896;2022-07-06T15:55:01;22.70;99.90
5126;DHT22;2581;53.112;8.896;2022-07-06T15:57:27;22.70;99.90
5126;DHT22;2581;53.112;8.896;2022-07-06T15:59:52;22.70;99.90
5126;DHT22;2581;53.112;8.896;2022-07-06T16:02:18;22.50;99.90
5126;DHT22;2581;53.112;8.896;2022-07-06T16:04:45;22.50;99.90
5126;DHT22;2581;53.112;8.896;2022-07-06T16:07:11;22.30;99.90
5126;DHT22;2581;53.112;8.896;2022-07-06T16:09:37;22.30;99.90
5126;DHT22;2581;53.112;8.896;2022-07-06T16:12:03;22.30;99.90